WJA591 CYHZ-CYWG
Flight info
| Callsign | WJA591 |
|---|---|
| Flight time | N/A |
| Altitude | 38000 |
| Route | KELNO DCT EMLOB DCT MIVAX DCT GRAMP DCT YGQ DCT VESRU DCT EMIVA NORAK6 |
| Aircraft | B38M/M-SDE1FGHILORVWXY/HB1 |
Departure
| Time | N/A |
|---|---|
| Airport | Halifax / Stanfield International Airport (CYHZ) |
Arrival
| Time | 2026-05-05 02:16 |
|---|---|
| Airport | Winnipeg / James Armstrong Richardson International Airport (CYWG) |
| Time | Latitude | Longitude | Altitude | Speed | Heading |
|---|---|---|---|---|---|
| 2026-05-05 01:37 | 49.84172 | -91.70302 | 37646 ft | 441 kts | 270° |
| 2026-05-05 01:37 | 49.84146 | -91.75050 | 37645 ft | 441 kts | 270° |
| 2026-05-05 01:38 | 49.84088 | -91.84559 | 37665 ft | 441 kts | 270° |
| 2026-05-05 01:38 | 49.84021 | -91.94057 | 37655 ft | 441 kts | 270° |
| 2026-05-05 01:39 | 49.83947 | -92.03556 | 37668 ft | 441 kts | 270° |
| 2026-05-05 01:39 | 49.83866 | -92.13059 | 37666 ft | 441 kts | 269° |
| 2026-05-05 01:40 | 49.83778 | -92.22537 | 37673 ft | 441 kts | 269° |
| 2026-05-05 01:40 | 49.83684 | -92.32033 | 37666 ft | 440 kts | 270° |
| 2026-05-05 01:41 | 49.83583 | -92.41517 | 37665 ft | 440 kts | 270° |
| 2026-05-05 01:41 | 49.83474 | -92.50997 | 37657 ft | 440 kts | 269° |
| 2026-05-05 01:42 | 49.83359 | -92.60466 | 37648 ft | 440 kts | 269° |
| 2026-05-05 01:42 | 49.83236 | -92.69952 | 37643 ft | 440 kts | 269° |
| 2026-05-05 01:43 | 49.82990 | -92.79426 | 37643 ft | 440 kts | 268° |
| 2026-05-05 01:43 | 49.82712 | -92.88841 | 37699 ft | 440 kts | 268° |
| 2026-05-05 01:44 | 49.82435 | -92.98309 | 37704 ft | 440 kts | 268° |
| 2026-05-05 01:44 | 49.82151 | -93.07780 | 37699 ft | 440 kts | 268° |
| 2026-05-05 01:45 | 49.81859 | -93.17243 | 37700 ft | 440 kts | 268° |
| 2026-05-05 01:45 | 49.81561 | -93.26697 | 37699 ft | 439 kts | 268° |
| 2026-05-05 01:46 | 49.81255 | -93.36128 | 37692 ft | 439 kts | 268° |
| 2026-05-05 01:46 | 49.80941 | -93.45570 | 37703 ft | 439 kts | 268° |
| 2026-05-05 01:47 | 49.80620 | -93.55008 | 37700 ft | 439 kts | 268° |
| 2026-05-05 01:47 | 49.80290 | -93.64458 | 37701 ft | 439 kts | 268° |
| 2026-05-05 01:48 | 49.79954 | -93.73872 | 37704 ft | 439 kts | 268° |
| 2026-05-05 01:48 | 49.79610 | -93.83303 | 37722 ft | 439 kts | 268° |
| 2026-05-05 01:49 | 49.79258 | -93.92725 | 37718 ft | 439 kts | 268° |
| 2026-05-05 01:49 | 49.78899 | -94.02150 | 37722 ft | 439 kts | 268° |
| 2026-05-05 01:50 | 49.78531 | -94.11571 | 37720 ft | 439 kts | 268° |
| 2026-05-05 01:50 | 49.78159 | -94.20944 | 37713 ft | 439 kts | 268° |
| 2026-05-05 01:51 | 49.77776 | -94.30369 | 37712 ft | 439 kts | 268° |
| 2026-05-05 01:51 | 49.77386 | -94.39785 | 37709 ft | 439 kts | 268° |
| 2026-05-05 01:52 | 49.77189 | -94.44487 | 37577 ft | 435 kts | 268° |
| 2026-05-05 01:52 | 49.76992 | -94.49138 | 36798 ft | 436 kts | 268° |
| 2026-05-05 01:52 | 49.76790 | -94.53853 | 35855 ft | 442 kts | 268° |
| 2026-05-05 01:52 | 49.76584 | -94.58611 | 35060 ft | 444 kts | 268° |
| 2026-05-05 01:53 | 49.76376 | -94.63368 | 34372 ft | 444 kts | 267° |
| 2026-05-05 01:53 | 49.76166 | -94.68131 | 33650 ft | 444 kts | 267° |
| 2026-05-05 01:53 | 49.75955 | -94.72902 | 32773 ft | 446 kts | 268° |
| 2026-05-05 01:53 | 49.75741 | -94.77692 | 31902 ft | 446 kts | 268° |
| 2026-05-05 01:54 | 49.75527 | -94.82471 | 31099 ft | 445 kts | 268° |
| 2026-05-05 01:54 | 49.75310 | -94.87247 | 30307 ft | 445 kts | 268° |
| 2026-05-05 01:54 | 49.75126 | -94.91978 | 29714 ft | 438 kts | 271° |
| 2026-05-05 01:54 | 49.75151 | -94.96678 | 28824 ft | 436 kts | 272° |
| 2026-05-05 01:55 | 49.75163 | -95.01336 | 28265 ft | 429 kts | 272° |
| 2026-05-05 01:55 | 49.75160 | -95.05916 | 27686 ft | 423 kts | 272° |
| 2026-05-05 01:55 | 49.75149 | -95.10446 | 27097 ft | 419 kts | 271° |
| 2026-05-05 01:55 | 49.75135 | -95.14930 | 26502 ft | 415 kts | 271° |
| 2026-05-05 01:56 | 49.75120 | -95.19377 | 25876 ft | 413 kts | 271° |
| 2026-05-05 01:56 | 49.75102 | -95.23767 | 25319 ft | 415 kts | 271° |
| 2026-05-05 01:56 | 49.75083 | -95.28228 | 24740 ft | 416 kts | 271° |
| 2026-05-05 01:56 | 49.75061 | -95.32699 | 24157 ft | 416 kts | 272° |
| 2026-05-05 01:57 | 49.75038 | -95.37161 | 23575 ft | 415 kts | 272° |
| 2026-05-05 01:57 | 49.75013 | -95.41614 | 22905 ft | 413 kts | 271° |
| 2026-05-05 01:57 | 49.74987 | -95.46019 | 22289 ft | 407 kts | 272° |
| 2026-05-05 01:57 | 49.74960 | -95.50362 | 21727 ft | 401 kts | 272° |
| 2026-05-05 01:58 | 49.74931 | -95.54645 | 21178 ft | 396 kts | 271° |
| 2026-05-05 01:58 | 49.74901 | -95.58886 | 20633 ft | 392 kts | 271° |
| 2026-05-05 01:58 | 49.74870 | -95.63077 | 20107 ft | 388 kts | 271° |
| 2026-05-05 01:58 | 49.74838 | -95.67235 | 19581 ft | 384 kts | 271° |
| 2026-05-05 01:59 | 49.74804 | -95.71344 | 19055 ft | 380 kts | 272° |
| 2026-05-05 01:59 | 49.74771 | -95.75405 | 18550 ft | 375 kts | 272° |
| 2026-05-05 01:59 | 49.74735 | -95.79421 | 18040 ft | 372 kts | 271° |
| 2026-05-05 01:59 | 49.74699 | -95.83407 | 17486 ft | 368 kts | 271° |
| 2026-05-05 02:00 | 49.74661 | -95.87356 | 16978 ft | 366 kts | 271° |
| 2026-05-05 02:00 | 49.74623 | -95.91277 | 16591 ft | 364 kts | 271° |
| 2026-05-05 02:00 | 49.74583 | -95.95175 | 16172 ft | 361 kts | 271° |
| 2026-05-05 02:00 | 49.74542 | -95.99035 | 15720 ft | 358 kts | 271° |
| 2026-05-05 02:01 | 49.74501 | -96.02861 | 15265 ft | 355 kts | 271° |
| 2026-05-05 02:01 | 49.74458 | -96.06660 | 14803 ft | 351 kts | 271° |
| 2026-05-05 02:01 | 49.74416 | -96.10373 | 14358 ft | 348 kts | 271° |
| 2026-05-05 02:01 | 49.74371 | -96.14150 | 13905 ft | 345 kts | 271° |
| 2026-05-05 02:02 | 49.74326 | -96.17842 | 13438 ft | 342 kts | 271° |
| 2026-05-05 02:02 | 49.74281 | -96.21503 | 12960 ft | 339 kts | 271° |
| 2026-05-05 02:02 | 49.74235 | -96.25133 | 12521 ft | 336 kts | 271° |
| 2026-05-05 02:02 | 49.74187 | -96.28727 | 12111 ft | 333 kts | 271° |
| 2026-05-05 02:03 | 49.74141 | -96.32200 | 11938 ft | 322 kts | 272° |
| 2026-05-05 02:03 | 49.74094 | -96.35593 | 11781 ft | 310 kts | 272° |
| 2026-05-05 02:03 | 49.74049 | -96.38869 | 11624 ft | 299 kts | 272° |
| 2026-05-05 02:03 | 49.74005 | -96.42026 | 11477 ft | 289 kts | 272° |
| 2026-05-05 02:04 | 49.73962 | -96.45067 | 11331 ft | 279 kts | 272° |
| 2026-05-05 02:04 | 49.73919 | -96.48010 | 11194 ft | 269 kts | 272° |
| 2026-05-05 02:04 | 49.73877 | -96.50853 | 11059 ft | 260 kts | 272° |
| 2026-05-05 02:04 | 49.73860 | -96.53620 | 10836 ft | 259 kts | 274° |
| 2026-05-05 02:05 | 49.73860 | -96.56427 | 10493 ft | 263 kts | 274° |
| 2026-05-05 02:05 | 49.73858 | -96.59261 | 10186 ft | 264 kts | 273° |
| 2026-05-05 02:05 | 49.73854 | -96.62099 | 9848 ft | 264 kts | 273° |
| 2026-05-05 02:05 | 49.73850 | -96.64967 | 9267 ft | 270 kts | 273° |
| 2026-05-05 02:06 | 49.73845 | -96.67901 | 8684 ft | 275 kts | 273° |
| 2026-05-05 02:06 | 49.73838 | -96.70862 | 8268 ft | 275 kts | 273° |
| 2026-05-05 02:06 | 49.73831 | -96.73755 | 7946 ft | 263 kts | 273° |
| 2026-05-05 02:06 | 49.73824 | -96.76550 | 7680 ft | 258 kts | 273° |
| 2026-05-05 02:07 | 49.73815 | -96.79299 | 7378 ft | 254 kts | 275° |
| 2026-05-05 02:07 | 49.73808 | -96.82008 | 7096 ft | 250 kts | 275° |
| 2026-05-05 02:07 | 49.73799 | -96.84683 | 6812 ft | 247 kts | 275° |
| 2026-05-05 02:07 | 49.73790 | -96.87317 | 6540 ft | 244 kts | 275° |
| 2026-05-05 02:08 | 49.73780 | -96.89918 | 6309 ft | 239 kts | 275° |
| 2026-05-05 02:08 | 49.73770 | -96.92440 | 6185 ft | 230 kts | 276° |
| 2026-05-05 02:08 | 49.73759 | -96.94885 | 6074 ft | 226 kts | 275° |
| 2026-05-05 02:08 | 49.73741 | -96.97301 | 5988 ft | 225 kts | 275° |
| 2026-05-05 02:09 | 49.73702 | -96.99726 | 5785 ft | 226 kts | 274° |
| 2026-05-05 02:09 | 49.73662 | -97.02160 | 5578 ft | 226 kts | 274° |
| 2026-05-05 02:09 | 49.73623 | -97.04571 | 5378 ft | 222 kts | 274° |
| 2026-05-05 02:09 | 49.73586 | -97.06897 | 5184 ft | 217 kts | 274° |
| 2026-05-05 02:10 | 49.73549 | -97.09191 | 5004 ft | 211 kts | 274° |
| 2026-05-05 02:10 | 49.73512 | -97.11422 | 4833 ft | 205 kts | 274° |
| 2026-05-05 02:10 | 49.73476 | -97.13625 | 4664 ft | 205 kts | 274° |
| 2026-05-05 02:10 | 49.73523 | -97.15802 | 4529 ft | 200 kts | 283° |
| 2026-05-05 02:11 | 49.73731 | -97.17889 | 4361 ft | 194 kts | 284° |
| 2026-05-05 02:11 | 49.73935 | -97.19923 | 4182 ft | 189 kts | 284° |
| 2026-05-05 02:11 | 49.74130 | -97.21895 | 4012 ft | 183 kts | 284° |
| 2026-05-05 02:11 | 49.74318 | -97.23812 | 3836 ft | 179 kts | 285° |
| 2026-05-05 02:12 | 49.74605 | -97.25632 | 3667 ft | 169 kts | 306° |
| 2026-05-05 02:12 | 49.76570 | -97.26963 | 3318 ft | 165 kts | 1° |
| 2026-05-05 02:12 | 49.77725 | -97.26832 | 3219 ft | 168 kts | 0° |
| 2026-05-05 02:13 | 49.78873 | -97.26639 | 3008 ft | 163 kts | 3° |
| 2026-05-05 02:13 | 49.79972 | -97.26390 | 2823 ft | 154 kts | 4° |
| 2026-05-05 02:13 | 49.80668 | -97.26229 | 2676 ft | 153 kts | 4° |
| 2026-05-05 02:13 | 49.82029 | -97.25914 | 2424 ft | 139 kts | 4° |
| 2026-05-05 02:14 | 49.82651 | -97.25772 | 2298 ft | 134 kts | 3° |
| 2026-05-05 02:14 | 49.83562 | -97.25562 | 2101 ft | 133 kts | 3° |
| 2026-05-05 02:14 | 49.84482 | -97.25350 | 1924 ft | 134 kts | 3° |
| 2026-05-05 02:14 | 49.85403 | -97.25137 | 1705 ft | 134 kts | 4° |
| 2026-05-05 02:15 | 49.86330 | -97.24929 | 1497 ft | 134 kts | 4° |
| 2026-05-05 02:15 | 49.87254 | -97.24705 | 1320 ft | 135 kts | 5° |
| 2026-05-05 02:15 | 49.88182 | -97.24494 | 1105 ft | 135 kts | 7° |
| 2026-05-05 02:15 | 49.89108 | -97.24283 | 921 ft | 134 kts | 7° |
| 2026-05-05 02:16 | 49.90013 | -97.24075 | 789 ft | 124 kts | 8° |
| 2026-05-05 02:16 | 49.90654 | -97.23925 | 791 ft | 59 kts | 8° |
| 2026-05-05 02:16 | 49.91031 | -97.23838 | 789 ft | 50 kts | 8° |
| 2026-05-05 02:16 | 49.91206 | -97.23793 | 790 ft | 10 kts | 36° |
| 2026-05-05 02:17 | 49.91217 | -97.23698 | 790 ft | 12 kts | 98° |
| 2026-05-05 02:17 | 49.91194 | -97.23597 | 789 ft | 8 kts | 144° |
| 2026-05-05 02:17 | 49.91132 | -97.23549 | 789 ft | 13 kts | 154° |
| 2026-05-05 02:17 | 49.91035 | -97.23477 | 789 ft | 17 kts | 154° |
| 2026-05-05 02:18 | 49.90917 | -97.23391 | 789 ft | 20 kts | 155° |
| 2026-05-05 02:18 | 49.90784 | -97.23298 | 789 ft | 22 kts | 155° |
| 2026-05-05 02:18 | 49.90688 | -97.23202 | 789 ft | 13 kts | 112° |
| 2026-05-05 02:18 | 49.90696 | -97.23047 | 789 ft | 16 kts | 77° |
| 2026-05-05 02:19 | 49.90718 | -97.22876 | 789 ft | 16 kts | 79° |
| 2026-05-05 02:19 | 49.90734 | -97.22750 | 789 ft | 7 kts | 78° |
| 2026-05-05 02:19 | 49.90731 | -97.22718 | 789 ft | 2 kts | 124° |
| 2026-05-05 02:19 | 49.90714 | -97.22700 | 789 ft | 4 kts | 155° |
| 2026-05-05 02:20 | 49.90683 | -97.22685 | 789 ft | 3 kts | 163° |
| 2026-05-05 02:20 | 49.90673 | -97.22680 | 789 ft | 0 kts | 163° |